createdAt,value
2022-09-06T00:02:47.964Z,4.9
2022-09-06T00:07:47.912Z,3.5
2022-09-06T00:12:47.920Z,4.7
2022-09-06T00:17:47.916Z,2.6
2022-09-06T00:22:47.916Z,2.2
2022-09-06T00:27:47.914Z,2.7
2022-09-06T00:32:47.917Z,4.0
2022-09-06T00:37:47.921Z,2.7
2022-09-06T00:42:47.917Z,2.2
2022-09-06T00:47:47.922Z,2.8
2022-09-06T00:52:47.927Z,2.7
2022-09-06T00:57:47.924Z,3.2
2022-09-06T01:02:48.202Z,4.2
2022-09-06T01:07:47.938Z,4.0
2022-09-06T01:12:47.927Z,3.7
2022-09-06T01:32:47.936Z,4.9
2022-09-06T01:37:47.936Z,6.1
2022-09-06T01:42:47.936Z,4.0
2022-09-06T01:47:47.945Z,4.8
2022-09-06T01:52:47.946Z,7.2
2022-09-06T01:57:47.947Z,5.2
2022-09-06T02:02:48.020Z,5.6
2022-09-06T02:07:47.945Z,6.0
2022-09-06T02:12:47.948Z,6.1
2022-09-06T02:22:47.961Z,7.3
2022-09-06T02:27:47.947Z,6.5
2022-09-06T02:32:47.946Z,4.8
2022-09-06T02:37:47.967Z,5.0
2022-09-06T02:42:47.956Z,6.1
2022-09-06T02:47:47.957Z,9.0
2022-09-06T02:52:47.960Z,7.7
2022-09-06T02:57:47.963Z,6.8
2022-09-06T03:02:48.028Z,6.2
2022-09-06T03:07:47.960Z,7.3
2022-09-06T03:12:48.031Z,7.2
2022-09-06T03:17:48.029Z,8.6
2022-09-06T03:22:48.038Z,7.5
2022-09-06T03:27:48.034Z,7.0
2022-09-06T03:32:48.040Z,5.9
2022-09-06T03:37:48.036Z,5.9
2022-09-06T03:42:48.046Z,8.1
2022-09-06T03:47:48.040Z,6.3
2022-09-06T03:52:48.041Z,6.5
2022-09-06T03:57:48.047Z,6.2
2022-09-06T04:07:48.051Z,6.9
2022-09-06T04:12:48.048Z,7.2
2022-09-06T04:17:48.053Z,12.1
2022-09-06T04:27:48.054Z,7.3
2022-09-06T04:32:48.058Z,6.9
2022-09-06T04:37:48.055Z,7.7
2022-09-06T04:42:48.056Z,7.4
2022-09-06T04:47:48.061Z,6.4
2022-09-06T04:52:48.062Z,6.6
2022-09-06T04:57:51.044Z,7.6
2022-09-06T05:02:48.061Z,7.0
2022-09-06T05:07:48.064Z,9.4
2022-09-06T05:12:48.070Z,6.6
2022-09-06T05:17:48.066Z,6.1
2022-09-06T05:22:48.070Z,8.0
2022-09-06T05:27:48.073Z,8.8
2022-09-06T05:32:48.082Z,9.2
2022-09-06T05:37:48.075Z,8.4
2022-09-06T05:42:48.073Z,10.5
2022-09-06T05:47:48.077Z,14.0
2022-09-06T05:52:48.082Z,12.4
2022-09-06T05:57:48.083Z,11.8
2022-09-06T06:02:48.182Z,11.2
2022-09-06T06:07:48.097Z,12.4
2022-09-06T06:17:48.091Z,12.7
2022-09-06T06:22:48.095Z,16.9
2022-09-06T06:27:48.093Z,14.4
2022-09-06T06:32:48.105Z,14.7
2022-09-06T06:37:48.096Z,18.6
2022-09-06T06:42:48.104Z,13.0
2022-09-06T06:47:48.113Z,16.9
2022-09-06T06:52:48.116Z,18.1
2022-09-06T06:57:48.117Z,10.8
2022-09-06T07:02:48.118Z,9.1
2022-09-06T07:07:48.125Z,9.7
2022-09-06T07:12:48.130Z,10.4
2022-09-06T07:17:48.127Z,7.2
2022-09-06T07:22:48.133Z,7.6
2022-09-06T07:27:49.120Z,8.3
2022-09-06T07:32:48.138Z,9.7
2022-09-06T07:37:48.147Z,7.3
2022-09-06T07:42:48.150Z,8.7
2022-09-06T07:57:48.167Z,7.2
2022-09-06T08:02:48.162Z,9.0
2022-09-06T08:07:48.309Z,8.0
2022-09-06T08:12:48.165Z,6.0
2022-09-06T08:17:48.164Z,5.7
2022-09-06T08:22:48.175Z,5.8
2022-09-06T08:27:48.178Z,5.8
2022-09-06T08:32:48.181Z,5.5
2022-09-06T08:37:48.179Z,5.1
2022-09-06T08:42:48.182Z,8.0
2022-09-06T08:47:48.189Z,4.8
2022-09-06T08:53:06.136Z,4.6
2022-09-06T08:57:48.196Z,4.0
2022-09-06T09:02:48.199Z,4.0
2022-09-06T09:07:48.211Z,3.2
2022-09-06T09:12:48.205Z,4.1
2022-09-06T09:17:48.198Z,2.5
2022-09-06T09:22:48.207Z,4.6
2022-09-06T09:27:48.208Z,2.4
2022-09-06T09:32:48.212Z,3.2
2022-09-06T09:37:49.717Z,2.3
2022-09-06T09:42:48.216Z,1.9
2022-09-06T09:47:48.216Z,3.5
2022-09-06T09:52:48.228Z,2.0
2022-09-06T09:57:48.225Z,2.7
2022-09-06T10:02:48.223Z,3.1
2022-09-06T10:07:48.261Z,3.2
2022-09-06T10:12:48.242Z,1.8
2022-09-06T10:17:48.237Z,3.7
2022-09-06T10:22:48.236Z,4.0
2022-09-06T10:28:01.669Z,3.2
2022-09-06T10:32:48.247Z,4.3
2022-09-06T10:37:48.245Z,3.1
2022-09-06T10:42:48.252Z,2.8
2022-09-06T10:47:48.255Z,2.6
2022-09-06T10:52:48.169Z,2.5
2022-09-06T11:02:48.632Z,2.3
2022-09-06T11:12:48.162Z,3.5
2022-09-06T11:17:48.172Z,2.3
2022-09-06T11:22:48.175Z,3.3
2022-09-06T11:27:48.177Z,3.7
2022-09-06T11:32:48.180Z,3.4
2022-09-06T11:37:48.187Z,4.2
2022-09-06T11:42:48.185Z,4.3
2022-09-06T11:52:48.182Z,2.7
2022-09-06T11:57:48.180Z,2.8
2022-09-06T12:02:48.306Z,3.1
2022-09-06T12:07:48.191Z,3.3
2022-09-06T12:12:48.194Z,2.6
2022-09-06T12:17:48.212Z,4.1
2022-09-06T12:22:48.197Z,2.3
2022-09-06T12:27:48.198Z,4.8
2022-09-06T12:32:48.201Z,4.6
2022-09-06T12:37:48.200Z,2.5
2022-09-06T12:42:48.208Z,4.1
2022-09-06T12:47:48.212Z,2.9
2022-09-06T12:52:48.212Z,2.8
2022-09-06T12:57:48.217Z,3.6
2022-09-06T13:02:48.391Z,3.5
2022-09-06T13:07:48.217Z,3.2
2022-09-06T13:12:48.221Z,1.7
2022-09-06T13:17:48.232Z,3.1
2022-09-06T13:22:48.226Z,1.9
2022-09-06T13:27:48.226Z,2.8
2022-09-06T13:32:48.231Z,3.5
2022-09-06T13:37:48.236Z,3.1
2022-09-06T13:42:48.259Z,1.5
2022-09-06T13:47:48.235Z,3.7
2022-09-06T13:52:48.240Z,4.8
2022-09-06T13:57:48.240Z,2.4
2022-09-06T14:02:48.339Z,2.1
2022-09-06T14:07:48.249Z,2.8
2022-09-06T14:12:48.275Z,2.8
2022-09-06T14:17:48.254Z,2.8
2022-09-06T14:22:48.255Z,2.3
2022-09-06T14:27:48.263Z,3.6
2022-09-06T14:32:48.263Z,2.0
2022-09-06T14:37:48.263Z,2.6
2022-09-06T14:42:50.512Z,3.7
2022-09-06T14:47:48.268Z,2.5
2022-09-06T14:52:48.278Z,2.1
2022-09-06T14:57:48.270Z,2.9
2022-09-06T15:02:48.300Z,1.9
2022-09-06T15:07:48.271Z,2.0
2022-09-06T15:12:48.278Z,3.0
2022-09-06T15:17:48.278Z,3.5
2022-09-06T15:22:50.950Z,3.4
2022-09-06T15:27:48.291Z,5.6
2022-09-06T15:32:48.287Z,2.3
2022-09-06T15:37:48.288Z,3.4
2022-09-06T15:42:48.293Z,3.3
2022-09-06T15:47:48.292Z,4.4
2022-09-06T15:52:48.288Z,6.1
2022-09-06T15:57:48.293Z,3.4
2022-09-06T16:02:48.367Z,4.6
2022-09-06T16:07:48.318Z,3.5
2022-09-06T16:12:50.588Z,5.8
2022-09-06T16:17:48.301Z,4.3
2022-09-06T16:22:48.314Z,5.2
2022-09-06T16:27:48.319Z,4.2
2022-09-06T16:32:48.301Z,3.0
2022-09-06T16:37:48.304Z,3.9
2022-09-06T16:42:48.308Z,3.9
2022-09-06T16:47:48.299Z,3.2
2022-09-06T16:52:48.301Z,3.1
2022-09-06T16:57:48.307Z,3.0
2022-09-06T17:02:48.446Z,7.1
2022-09-06T17:07:48.403Z,4.1
2022-09-06T17:12:48.407Z,3.5
2022-09-06T17:17:48.409Z,6.5
2022-09-06T17:22:48.409Z,6.8
2022-09-06T17:27:48.401Z,4.5
2022-09-06T17:32:48.411Z,4.6
2022-09-06T17:37:48.409Z,12.8
2022-09-06T17:42:48.408Z,6.7
2022-09-06T17:47:48.408Z,6.1
2022-09-06T17:52:48.409Z,7.4
2022-09-06T17:57:48.414Z,8.1
2022-09-06T18:02:48.419Z,5.5
2022-09-06T18:07:48.420Z,4.3
2022-09-06T18:12:48.419Z,4.9
2022-09-06T18:17:48.417Z,6.3
2022-09-06T18:22:48.423Z,6.3
2022-09-06T18:27:48.420Z,5.4
2022-09-06T18:32:48.417Z,6.6
2022-09-06T18:37:48.426Z,5.9
2022-09-06T18:42:48.438Z,4.4
2022-09-06T18:47:48.433Z,6.8
2022-09-06T18:52:48.428Z,8.7
2022-09-06T18:57:48.427Z,5.8
2022-09-06T19:02:48.429Z,5.2
2022-09-06T19:07:48.439Z,4.9
2022-09-06T19:12:53.015Z,9.6
2022-09-06T19:17:48.439Z,6.0
2022-09-06T19:22:48.439Z,5.8
2022-09-06T19:27:48.992Z,9.3
2022-09-06T19:32:48.440Z,17.2
2022-09-06T19:37:48.442Z,7.8
2022-09-06T19:42:48.451Z,7.0
2022-09-06T19:47:48.451Z,8.2
2022-09-06T19:52:48.450Z,8.9
2022-09-06T19:57:48.450Z,6.0
2022-09-06T20:02:48.453Z,5.9
2022-09-06T20:07:48.458Z,8.0
2022-09-06T20:12:48.454Z,6.2
2022-09-06T20:17:48.462Z,5.2
2022-09-06T20:22:48.460Z,6.1
2022-09-06T20:27:48.458Z,6.0
2022-09-06T20:32:48.465Z,4.3
2022-09-06T20:37:48.464Z,6.2
2022-09-06T20:47:48.465Z,7.0
2022-09-06T20:52:48.470Z,4.4
2022-09-06T20:57:48.471Z,5.2
2022-09-06T21:02:48.470Z,6.8
2022-09-06T21:07:48.470Z,8.0
2022-09-06T21:12:48.472Z,5.6
2022-09-06T21:17:48.496Z,3.9
2022-09-06T21:22:48.477Z,4.9
2022-09-06T21:27:50.648Z,4.2
2022-09-06T21:32:48.485Z,8.6
2022-09-06T21:37:48.488Z,5.1
2022-09-06T21:42:48.487Z,7.3
2022-09-06T21:47:48.485Z,7.2
2022-09-06T21:52:48.492Z,4.2
2022-09-06T21:57:48.489Z,5.6
2022-09-06T22:02:48.495Z,4.3
2022-09-06T22:07:48.499Z,5.6
2022-09-06T22:12:48.495Z,13.1
2022-09-06T22:17:48.502Z,10.7
2022-09-06T22:22:48.513Z,6.4
2022-09-06T22:27:48.500Z,8.7
2022-09-06T22:32:48.502Z,8.1
2022-09-06T22:37:48.503Z,5.4
2022-09-06T22:42:48.516Z,7.5
2022-09-06T22:47:48.504Z,7.2
2022-09-06T22:52:48.511Z,7.5
2022-09-06T22:57:48.505Z,11.7
2022-09-06T23:02:48.514Z,11.7
2022-09-06T23:07:48.511Z,10.0
2022-09-06T23:12:48.515Z,12.2
2022-09-06T23:17:48.518Z,11.6
2022-09-06T23:22:48.522Z,12.7
2022-09-06T23:27:48.515Z,8.3
2022-09-06T23:32:48.520Z,11.6
2022-09-06T23:37:48.521Z,10.5
2022-09-06T23:42:48.519Z,13.2
2022-09-06T23:47:48.526Z,10.8
2022-09-06T23:52:48.518Z,11.8
2022-09-06T23:57:48.529Z,12.5
